createdAt,value
2017-11-04T00:02:21.150Z,32.50
2017-11-04T00:04:48.626Z,32.83
2017-11-04T00:07:16.085Z,33.07
2017-11-04T00:09:43.552Z,35.17
2017-11-04T00:12:11.018Z,32.80
2017-11-04T00:14:38.491Z,32.97
2017-11-04T00:17:05.952Z,35.07
2017-11-04T00:19:33.399Z,32.57
2017-11-04T00:22:00.861Z,32.10
2017-11-04T00:24:28.307Z,31.67
2017-11-04T00:26:55.769Z,33.00
2017-11-04T00:29:23.230Z,33.00
2017-11-04T00:31:51.470Z,30.40
2017-11-04T00:34:18.951Z,33.03
2017-11-04T00:36:46.411Z,33.53
2017-11-04T00:39:13.870Z,31.77
2017-11-04T00:41:41.336Z,31.60
2017-11-04T00:44:08.801Z,31.47
2017-11-04T00:46:36.267Z,31.50
2017-11-04T00:49:04.503Z,31.40
2017-11-04T00:51:31.973Z,32.10
2017-11-04T00:54:00.211Z,31.27
2017-11-04T00:56:28.428Z,30.70
2017-11-04T00:58:55.899Z,31.27
2017-11-04T01:01:23.353Z,30.57
2017-11-04T01:06:24.797Z,30.57
2017-11-04T01:08:52.254Z,30.07
2017-11-04T01:11:20.471Z,30.17
2017-11-04T01:13:47.959Z,31.07
2017-11-04T01:16:15.415Z,30.43
2017-11-04T01:18:42.887Z,31.77
2017-11-04T01:21:10.336Z,30.57
2017-11-04T01:23:37.801Z,29.47
2017-11-04T01:26:05.268Z,29.97
2017-11-04T01:28:32.717Z,28.93
2017-11-04T01:31:00.179Z,27.77
2017-11-04T01:33:27.641Z,30.73
2017-11-04T01:35:55.878Z,29.00
2017-11-04T01:38:24.112Z,28.20
2017-11-04T01:40:51.559Z,28.77
2017-11-04T01:43:19.031Z,29.90
2017-11-04T01:45:46.489Z,28.63
2017-11-04T01:48:13.426Z,29.57
2017-11-04T01:50:40.891Z,27.87
2017-11-04T01:53:16.923Z,26.53
2017-11-04T01:55:44.401Z,30.50
2017-11-04T01:58:11.854Z,26.90
2017-11-04T02:00:39.340Z,28.00
2017-11-04T02:03:06.830Z,28.80
2017-11-04T02:05:34.295Z,28.10
2017-11-04T02:08:01.741Z,27.90
2017-11-04T02:10:29.202Z,26.77
2017-11-04T02:12:56.679Z,26.57
2017-11-04T02:15:24.121Z,27.67
2017-11-04T02:17:51.571Z,28.33
2017-11-04T02:20:19.033Z,28.90
2017-11-04T02:22:46.501Z,27.90
2017-11-04T02:25:13.952Z,27.53
2017-11-04T02:27:41.421Z,27.50
2017-11-04T02:30:08.881Z,27.00
2017-11-04T02:32:36.325Z,27.37
2017-11-04T02:35:03.785Z,27.97
2017-11-04T02:37:31.226Z,26.43
2017-11-04T02:39:58.696Z,25.63
2017-11-04T02:42:26.938Z,27.43
2017-11-04T02:44:54.366Z,25.83
2017-11-04T02:47:21.839Z,27.50
2017-11-04T02:49:49.297Z,26.17
2017-11-04T02:52:16.762Z,26.60
2017-11-04T02:54:44.238Z,24.97
2017-11-04T02:57:11.692Z,27.03
2017-11-04T02:59:39.164Z,26.27
2017-11-04T03:02:06.715Z,26.03
2017-11-04T03:04:34.177Z,25.83
2017-11-04T03:07:01.643Z,25.90
2017-11-04T03:09:29.116Z,26.57
2017-11-04T03:11:56.565Z,25.07
2017-11-04T03:16:57.957Z,25.53
2017-11-04T03:19:25.422Z,26.73
2017-11-04T03:21:52.873Z,25.63
2017-11-04T03:24:20.369Z,25.37
2017-11-04T03:26:47.811Z,25.00
2017-11-04T03:29:15.255Z,25.57
2017-11-04T03:31:42.710Z,25.13
2017-11-04T03:34:10.151Z,26.73
2017-11-04T03:36:38.388Z,24.57
2017-11-04T03:39:05.836Z,25.00
2017-11-04T03:41:33.297Z,24.60
2017-11-04T03:44:00.741Z,25.40
2017-11-04T03:46:28.215Z,24.97
2017-11-04T03:48:55.683Z,24.60
2017-11-04T03:51:23.144Z,24.93
2017-11-04T03:53:50.607Z,24.43
2017-11-04T03:56:18.086Z,25.03
2017-11-04T03:58:45.565Z,25.03
2017-11-04T04:01:13.029Z,24.93
2017-11-04T04:03:40.481Z,23.80
2017-11-04T04:06:07.935Z,23.93
2017-11-04T04:08:35.414Z,24.33
2017-11-04T04:11:02.876Z,24.97
2017-11-04T04:13:30.336Z,24.23
2017-11-04T04:15:57.787Z,24.70
2017-11-04T04:18:26.005Z,24.13
2017-11-04T04:20:54.357Z,23.03
2017-11-04T04:23:21.804Z,24.57
2017-11-04T04:25:49.265Z,25.63
2017-11-04T04:28:16.726Z,24.17
2017-11-04T04:30:44.181Z,24.70
2017-11-04T04:33:11.644Z,24.40
2017-11-04T04:35:39.124Z,24.50
2017-11-04T04:38:06.605Z,24.50
2017-11-04T04:40:34.051Z,23.73
2017-11-04T04:43:02.259Z,24.00
2017-11-04T04:45:29.739Z,25.03
2017-11-04T04:47:57.970Z,23.97
2017-11-04T04:50:25.458Z,24.13
2017-11-04T04:52:52.909Z,23.97
2017-11-04T04:55:20.360Z,23.90
2017-11-04T04:57:47.829Z,25.17
2017-11-04T05:00:15.288Z,24.27
2017-11-04T05:02:42.772Z,24.43
2017-11-04T05:05:10.218Z,24.10
2017-11-04T05:07:37.676Z,24.87
2017-11-04T05:10:05.153Z,24.83
2017-11-04T05:12:34.415Z,24.03
2017-11-04T05:15:01.892Z,23.00
2017-11-04T05:17:29.336Z,23.93
2017-11-04T05:19:56.816Z,23.33
2017-11-04T05:22:24.295Z,23.80
2017-11-04T05:24:51.756Z,23.40
2017-11-04T05:27:19.212Z,24.03
2017-11-04T05:29:47.089Z,24.63
2017-11-04T05:32:14.540Z,23.00
2017-11-04T05:34:41.993Z,24.37
2017-11-04T05:37:09.454Z,24.47
2017-11-04T05:39:36.895Z,24.27
2017-11-04T05:42:05.119Z,24.57
2017-11-04T05:44:32.575Z,23.73
2017-11-04T05:47:00.050Z,22.30
2017-11-04T05:49:27.504Z,23.70
2017-11-04T05:52:01.512Z,23.47
2017-11-04T05:54:28.970Z,23.83
2017-11-04T05:56:56.425Z,22.60
2017-11-04T05:59:23.883Z,23.53
2017-11-04T06:01:51.357Z,23.13
2017-11-04T06:04:18.816Z,23.70
2017-11-04T06:06:46.374Z,24.57
2017-11-04T06:09:13.829Z,24.83
2017-11-04T06:11:41.279Z,23.40
2017-11-04T06:14:09.525Z,23.67
2017-11-04T06:16:36.995Z,22.97
2017-11-04T06:19:04.445Z,23.57
2017-11-04T06:21:31.899Z,24.07
2017-11-04T06:23:59.362Z,22.93
2017-11-04T06:26:26.967Z,24.57
2017-11-04T06:28:55.195Z,24.33
2017-11-04T06:31:22.656Z,23.83
2017-11-04T06:33:50.127Z,23.03
2017-11-04T06:36:17.574Z,24.00
2017-11-04T06:38:45.036Z,23.20
2017-11-04T06:41:12.513Z,22.80
2017-11-04T06:43:39.977Z,23.80
2017-11-04T06:46:07.446Z,23.13
2017-11-04T06:48:34.909Z,23.30
2017-11-04T06:51:02.384Z,22.83
2017-11-04T06:53:29.856Z,23.67
2017-11-04T06:55:57.334Z,23.07
2017-11-04T06:58:24.804Z,23.43
2017-11-04T07:00:53.028Z,23.17
2017-11-04T07:03:20.493Z,22.80
2017-11-04T07:05:47.958Z,23.30
2017-11-04T07:08:15.400Z,24.03
2017-11-04T07:10:42.858Z,23.03
2017-11-04T07:13:10.326Z,23.70
2017-11-04T07:15:37.793Z,23.03
2017-11-04T07:18:05.245Z,23.50
2017-11-04T07:20:32.712Z,23.03
2017-11-04T07:23:00.183Z,24.80
2017-11-04T07:25:27.623Z,23.13
2017-11-04T07:27:55.113Z,24.50
2017-11-04T07:30:22.552Z,22.90
2017-11-04T07:32:50.027Z,24.87
2017-11-04T07:35:17.467Z,22.73
2017-11-04T07:37:45.710Z,22.00
2017-11-04T07:40:13.200Z,23.63
2017-11-04T07:42:41.412Z,22.50
2017-11-04T07:45:08.862Z,23.20
2017-11-04T07:47:36.341Z,23.00
2017-11-04T07:50:03.795Z,22.80
2017-11-04T07:52:31.247Z,22.10
2017-11-04T07:54:58.727Z,23.10
2017-11-04T07:57:26.185Z,23.13
2017-11-04T07:59:53.661Z,22.03
2017-11-04T08:02:21.153Z,23.27
2017-11-04T08:04:48.945Z,23.27
2017-11-04T08:07:17.183Z,24.33
2017-11-04T08:09:44.642Z,24.93
2017-11-04T08:12:12.123Z,22.93
2017-11-04T08:14:39.573Z,23.20
2017-11-04T08:17:07.232Z,24.17
2017-11-04T08:19:34.698Z,22.83
2017-11-04T08:22:02.862Z,24.57
2017-11-04T08:24:30.330Z,21.80
2017-11-04T08:26:57.796Z,21.80
2017-11-04T08:29:25.239Z,23.23
2017-11-04T08:31:52.704Z,23.83
2017-11-04T08:34:20.160Z,21.63
2017-11-04T08:36:47.617Z,23.43
2017-11-04T08:39:15.857Z,24.50
2017-11-04T08:41:43.310Z,22.33
2017-11-04T08:44:10.788Z,24.50
2017-11-04T08:46:38.251Z,23.70
2017-11-04T08:49:05.712Z,22.50
2017-11-04T08:51:34.578Z,21.57
2017-11-04T08:54:02.051Z,22.53
2017-11-04T08:56:29.516Z,23.20
2017-11-04T08:58:56.974Z,23.73
2017-11-04T09:01:24.424Z,22.17
2017-11-04T09:03:54.366Z,24.07
2017-11-04T09:06:21.823Z,25.90
2017-11-04T09:08:49.322Z,23.80
2017-11-04T09:11:16.770Z,24.33
2017-11-04T09:13:44.221Z,24.57
2017-11-04T09:16:11.667Z,24.67
2017-11-04T09:18:39.106Z,23.63
2017-11-04T09:21:06.590Z,24.40
2017-11-04T09:23:34.039Z,24.30
2017-11-04T09:26:01.547Z,25.07
2017-11-04T09:28:29.023Z,24.70
2017-11-04T09:30:56.476Z,24.07
2017-11-04T09:33:23.951Z,24.30
2017-11-04T09:35:52.603Z,23.53
2017-11-04T09:38:20.861Z,25.20
2017-11-04T09:40:48.312Z,23.37
2017-11-04T09:43:15.768Z,23.30
2017-11-04T09:45:44.012Z,24.57
2017-11-04T09:48:11.731Z,24.60
2017-11-04T09:50:39.197Z,23.60
2017-11-04T09:53:06.659Z,23.93
2017-11-04T09:55:34.142Z,24.30
2017-11-04T09:58:01.597Z,24.83
2017-11-04T10:00:29.046Z,23.70
2017-11-04T10:02:56.512Z,24.70
2017-11-04T10:05:23.988Z,23.33
2017-11-04T10:07:51.438Z,24.33
2017-11-04T10:10:18.889Z,24.17
2017-11-04T10:12:46.346Z,23.27
2017-11-04T10:15:13.794Z,23.97
2017-11-04T10:17:42.015Z,23.10
2017-11-04T10:20:09.472Z,23.97
2017-11-04T10:22:36.937Z,24.77
2017-11-04T10:25:04.400Z,23.23
2017-11-04T10:27:31.954Z,23.87
2017-11-04T10:29:59.431Z,22.97
2017-11-04T10:32:26.898Z,24.23
2017-11-04T10:34:54.344Z,24.07
2017-11-04T10:37:22.522Z,23.57
2017-11-04T10:39:49.996Z,25.10
2017-11-04T10:42:17.456Z,23.70
2017-11-04T10:44:44.907Z,23.33
2017-11-04T10:47:12.380Z,24.60
2017-11-04T10:49:39.844Z,24.87
2017-11-04T10:52:07.306Z,24.57
2017-11-04T10:54:34.763Z,22.67
2017-11-04T10:57:02.224Z,24.30
2017-11-04T10:59:29.697Z,25.73
2017-11-04T11:01:57.170Z,25.17
2017-11-04T11:04:24.637Z,25.53
2017-11-04T11:06:52.096Z,25.70
2017-11-04T11:09:19.532Z,25.87
2017-11-04T11:11:47.009Z,27.93
2017-11-04T11:14:14.470Z,27.03
2017-11-04T11:16:41.920Z,24.50
2017-11-04T11:19:09.401Z,24.27
2017-11-04T11:21:36.842Z,22.97
2017-11-04T11:24:04.297Z,23.27
2017-11-04T11:26:31.756Z,25.13
2017-11-04T11:28:59.983Z,25.57
2017-11-04T11:31:27.906Z,24.90
2017-11-04T11:33:56.136Z,24.07
2017-11-04T11:36:23.589Z,24.23
2017-11-04T11:38:51.064Z,23.97
2017-11-04T11:41:18.536Z,25.60
2017-11-04T11:43:45.989Z,23.67
2017-11-04T11:46:13.451Z,24.70
2017-11-04T11:48:40.896Z,24.03
2017-11-04T11:51:08.363Z,24.07
2017-11-04T11:53:35.853Z,24.63
2017-11-04T11:56:04.102Z,24.80
2017-11-04T11:58:31.557Z,23.80
2017-11-04T12:00:59.039Z,24.13
2017-11-04T12:03:26.499Z,24.20
2017-11-04T12:05:53.948Z,24.47
2017-11-04T12:08:21.414Z,23.47
2017-11-04T12:10:48.865Z,24.83
2017-11-04T12:13:16.305Z,24.23
2017-11-04T12:15:44.544Z,24.00
2017-11-04T12:18:11.993Z,24.93
2017-11-04T12:20:39.440Z,25.60
2017-11-04T12:23:06.900Z,24.70
2017-11-04T12:25:34.344Z,25.33
2017-11-04T12:28:02.568Z,26.40
2017-11-04T12:30:30.027Z,24.00
2017-11-04T12:32:58.238Z,25.23
2017-11-04T12:35:25.700Z,25.40
2017-11-04T12:37:53.153Z,25.63
2017-11-04T12:40:20.629Z,24.30
2017-11-04T12:42:48.076Z,26.17
2017-11-04T12:45:15.522Z,25.03
2017-11-04T12:47:42.985Z,25.87
2017-11-04T12:50:10.438Z,25.33
2017-11-04T12:52:37.906Z,26.40
2017-11-04T12:55:05.374Z,26.10
2017-11-04T12:57:32.831Z,24.73
2017-11-04T13:00:00.287Z,25.93
2017-11-04T13:02:27.747Z,24.90
2017-11-04T13:04:55.213Z,24.53
2017-11-04T13:07:22.664Z,25.13
2017-11-04T13:09:50.144Z,24.80
2017-11-04T13:12:17.588Z,24.50
2017-11-04T13:14:45.051Z,26.07
2017-11-04T13:17:12.518Z,24.97
2017-11-04T13:19:39.963Z,24.87
2017-11-04T13:22:07.424Z,25.07
2017-11-04T13:24:34.896Z,25.27
2017-11-04T13:27:02.338Z,27.40
2017-11-04T13:29:30.555Z,25.33
2017-11-04T13:31:58.006Z,24.60
2017-11-04T13:34:25.472Z,25.83
2017-11-04T13:36:52.908Z,26.57
2017-11-04T13:39:21.144Z,25.07
2017-11-04T13:41:49.040Z,23.83
2017-11-04T13:44:17.352Z,25.87
2017-11-04T13:46:44.811Z,23.73
2017-11-04T13:49:13.027Z,24.27
2017-11-04T13:51:40.495Z,24.43
2017-11-04T13:54:07.963Z,25.70
2017-11-04T13:56:35.416Z,26.33
2017-11-04T13:59:02.897Z,27.63
2017-11-04T14:01:30.355Z,26.27
2017-11-04T14:03:57.816Z,28.33
2017-11-04T14:06:25.286Z,28.63
2017-11-04T14:08:52.764Z,27.07
2017-11-04T14:11:20.249Z,28.10
2017-11-04T14:13:48.467Z,27.60
2017-11-04T14:16:15.921Z,27.57
2017-11-04T14:18:43.366Z,28.03
2017-11-04T14:21:10.820Z,26.43
2017-11-04T14:23:39.023Z,26.17
2017-11-04T14:26:06.484Z,27.37
2017-11-04T14:28:33.918Z,28.50
2017-11-04T14:31:02.144Z,28.80
2017-11-04T14:33:29.579Z,28.37
2017-11-04T14:35:57.054Z,28.70
2017-11-04T14:38:24.479Z,27.47
2017-11-04T14:40:51.918Z,28.53
2017-11-04T14:43:19.354Z,28.23
2017-11-04T14:45:46.810Z,28.33
2017-11-04T14:48:14.265Z,28.60
2017-11-04T14:50:41.708Z,27.43
2017-11-04T14:53:09.166Z,27.83
2017-11-04T14:55:37.403Z,26.83
2017-11-04T14:58:04.872Z,28.07
2017-11-04T15:00:32.347Z,26.87
2017-11-04T15:02:59.792Z,27.77
2017-11-04T15:05:27.994Z,27.30
2017-11-04T15:07:55.472Z,27.60
2017-11-04T15:10:23.693Z,26.40
2017-11-04T15:12:51.148Z,25.77
2017-11-04T15:15:18.606Z,26.80
2017-11-04T15:17:46.046Z,26.10
2017-11-04T15:20:13.507Z,25.60
2017-11-04T15:22:40.952Z,25.53
2017-11-04T15:25:08.417Z,25.17
2017-11-04T15:27:35.864Z,24.20
2017-11-04T15:30:03.320Z,23.83
2017-11-04T15:32:30.774Z,23.87
2017-11-04T15:34:58.220Z,23.30
2017-11-04T15:37:25.663Z,22.70
2017-11-04T15:39:53.128Z,23.17
2017-11-04T15:42:20.577Z,21.90
2017-11-04T15:44:48.791Z,22.10
2017-11-04T15:47:16.248Z,21.40
2017-11-04T15:49:43.723Z,20.90
2017-11-04T15:52:11.166Z,20.57
2017-11-04T15:54:38.643Z,21.13
2017-11-04T15:57:06.092Z,20.93
2017-11-04T15:59:33.552Z,19.60
2017-11-04T16:02:01.015Z,20.23
2017-11-04T16:04:28.774Z,20.63
2017-11-04T16:06:56.224Z,18.90
2017-11-04T16:09:23.683Z,20.27
2017-11-04T16:11:51.933Z,19.43
2017-11-04T16:14:19.378Z,19.23
2017-11-04T16:16:46.841Z,19.47
2017-11-04T16:19:15.074Z,19.10
2017-11-04T16:21:43.290Z,19.23
2017-11-04T16:24:10.777Z,19.80
2017-11-04T16:26:38.242Z,19.33
2017-11-04T16:29:05.710Z,20.33
2017-11-04T16:31:33.184Z,19.50
2017-11-04T16:34:01.409Z,19.97
2017-11-04T16:36:28.870Z,18.87
2017-11-04T16:38:56.325Z,19.10
2017-11-04T16:41:23.778Z,19.70
2017-11-04T16:43:51.253Z,20.30
2017-11-04T16:46:18.732Z,19.33
2017-11-04T16:48:46.178Z,20.53
2017-11-04T16:51:13.614Z,21.60
2017-11-04T16:53:41.838Z,19.57
2017-11-04T16:56:09.320Z,20.83
2017-11-04T16:58:36.776Z,19.93
2017-11-04T17:01:04.231Z,21.07
2017-11-04T17:03:31.699Z,21.07
2017-11-04T17:05:59.135Z,22.13
2017-11-04T17:08:26.601Z,20.63
2017-11-04T17:10:54.071Z,21.60
2017-11-04T17:13:21.533Z,20.87
2017-11-04T17:15:49.751Z,21.40
2017-11-04T17:18:17.211Z,20.87
2017-11-04T17:20:44.653Z,22.47
2017-11-04T17:23:12.141Z,22.13
2017-11-04T17:25:39.573Z,21.63
2017-11-04T17:28:07.015Z,22.50
2017-11-04T17:30:35.152Z,20.77
2017-11-04T17:33:02.621Z,21.73
2017-11-04T17:35:30.849Z,22.23
2017-11-04T17:37:58.321Z,21.33
2017-11-04T17:40:25.768Z,22.37
2017-11-04T17:42:53.216Z,22.87
2017-11-04T17:45:20.687Z,22.20
2017-11-04T17:47:48.164Z,21.43
